Time;durP1;ratioP1;P1;durP2;ratioP2;P2;SDS_P1;SDS_P2;PMS_P1;PMS_P2;Temp;Humidity;BMP_temperature;BMP_pressure;BME280_temperature;BME280_humidity;BME280_pressure;Samples;Min_cycle;Max_cycle;Signal;HPM_P1;HPM_P2
2022/01/15 00:00:01;;;;;;;23.90;14.25;;;;;;;;;;774488;180;917831;-63
2022/01/15 00:02:27;;;;;;;26.23;15.10;;;;;;;;;;782263;177;919242;-63
2022/01/15 00:04:53;;;;;;;29.37;15.70;;;;;;;;;;780471;177;919297;-64
2022/01/15 00:07:19;;;;;;;24.90;14.37;;;;;;;;;;785806;177;918849;-64
2022/01/15 00:09:49;;;;;;;29.27;16.10;;;;;;;;;;774989;179;918905;-64
2022/01/15 00:12:11;;;;;;;35.13;17.43;;;;;;;;;;780603;177;917981;-64
2022/01/15 00:14:41;;;;;;;30.23;15.60;;;;;;;;;;778746;177;921574;-64
2022/01/15 00:17:07;;;;;;;24.60;12.47;;;;;;;;;;785099;176;918194;-63
2022/01/15 00:19:41;;;;;;;21.53;14.40;;;;;;;;;;784679;176;918170;-63
2022/01/15 00:22:00;;;;;;;20.97;13.47;;;;;;;;;;784188;176;916382;-63
2022/01/15 00:24:26;;;;;;;23.53;14.67;;;;;;;;;;781978;179;918525;-63
2022/01/15 00:26:52;;;;;;;25.33;14.07;;;;;;;;;;789851;176;919724;-64
2022/01/15 00:29:17;;;;;;;20.67;13.15;;;;;;;;;;782307;177;920903;-63
2022/01/15 00:31:43;;;;;;;24.03;13.10;;;;;;;;;;780487;176;918960;-63
2022/01/15 00:34:09;;;;;;;26.43;14.17;;;;;;;;;;782731;177;914248;-62
2022/01/15 00:36:35;;;;;;;23.30;13.20;;;;;;;;;;776515;177;916539;-62
2022/01/15 00:39:01;;;;;;;21.90;12.70;;;;;;;;;;778801;179;915566;-62
2022/01/15 00:41:27;;;;;;;21.10;12.30;;;;;;;;;;784358;177;915423;-63
2022/01/15 00:43:52;;;;;;;20.30;12.70;;;;;;;;;;778137;177;919334;-62
2022/01/15 00:46:18;;;;;;;26.83;13.70;;;;;;;;;;780883;176;920002;-63
2022/01/15 00:48:44;;;;;;;22.87;13.27;;;;;;;;;;789531;177;916695;-62
2022/01/15 00:51:10;;;;;;;20.57;13.63;;;;;;;;;;787332;176;918464;-63
2022/01/15 00:53:36;;;;;;;24.10;14.20;;;;;;;;;;767570;180;918743;-63
2022/01/15 00:56:02;;;;;;;20.50;13.33;;;;;;;;;;780967;177;913955;-63
2022/01/15 00:58:27;;;;;;;23.13;14.17;;;;;;;;;;778455;178;915486;-62
2022/01/15 01:00:53;;;;;;;24.97;14.23;;;;;;;;;;789117;176;915579;-63
2022/01/15 01:03:19;;;;;;;22.30;15.13;;;;;;;;;;784950;176;1015831;-63
2022/01/15 01:05:45;;;;;;;26.67;14.83;;;;;;;;;;788917;176;918788;-63
2022/01/15 01:08:11;;;;;;;25.00;13.30;;;;;;;;;;775775;176;919188;-63
2022/01/15 01:13:27;;;;;;;28.67;13.88;;;;;;;;;;787374;176;918929;-63
2022/01/15 01:23:19;;;;;;;23.00;14.20;;;;;;;;;;778774;177;631877;-63
2022/01/15 01:25:50;;;;;;;25.33;16.40;;;;;;;;;;792181;176;621133;-62
2022/01/15 01:28:22;;;;;;;22.90;14.27;;;;;;;;;;775668;177;632360;-63
2022/01/15 01:30:48;;;;;;;26.77;15.47;;;;;;;;;;785127;176;692347;-63
2022/01/15 01:33:30;;;;;;;25.40;15.20;;;;;;;;;;783314;177;918821;-62
2022/01/15 01:35:49;;;;;;;27.17;15.67;;;;;;;;;;786083;177;919581;-63
2022/01/15 01:38:16;;;;;;;30.97;16.47;;;;;;;;;;771025;180;918781;-64
2022/01/15 01:40:40;;;;;;;26.37;16.80;;;;;;;;;;778128;176;919461;-64
2022/01/15 01:43:25;;;;;;;31.60;17.20;;;;;;;;;;777602;180;919526;-63
2022/01/15 01:45:29;;;;;;;33.27;17.07;;;;;;;;;;784092;177;918907;-64
2022/01/15 01:47:55;;;;;;;27.63;15.40;;;;;;;;;;769118;180;918675;-65
2022/01/15 01:50:21;;;;;;;38.93;17.43;;;;;;;;;;779035;178;918864;-64
2022/01/15 01:52:47;;;;;;;30.30;17.40;;;;;;;;;;786519;177;1029815;-65
2022/01/15 01:55:13;;;;;;;32.80;17.63;;;;;;;;;;777074;177;919118;-65
2022/01/15 01:57:39;;;;;;;27.73;17.37;;;;;;;;;;787683;176;920486;-64
2022/01/15 02:00:05;;;;;;;32.40;16.98;;;;;;;;;;774629;176;919672;-65
2022/01/15 02:02:31;;;;;;;29.20;17.77;;;;;;;;;;769108;180;919438;-65
2022/01/15 02:04:57;;;;;;;36.83;19.57;;;;;;;;;;748051;186;918369;-65
2022/01/15 02:07:23;;;;;;;35.33;18.93;;;;;;;;;;749329;186;918923;-64
2022/01/15 02:09:48;;;;;;;30.90;16.83;;;;;;;;;;792484;174;917388;-66
2022/01/15 02:12:14;;;;;;;31.87;17.43;;;;;;;;;;784296;176;919954;-66
2022/01/15 02:14:40;;;;;;;39.90;19.20;;;;;;;;;;783773;176;919453;-66
2022/01/15 02:17:06;;;;;;;33.13;18.43;;;;;;;;;;787721;176;919190;-66
2022/01/15 02:19:32;;;;;;;29.40;16.73;;;;;;;;;;778914;177;919156;-66
2022/01/15 02:24:44;;;;;;;35.10;17.40;;;;;;;;;;771681;178;918939;-67
2022/01/15 02:27:10;;;;;;;29.67;17.20;;;;;;;;;;785810;176;918774;-67
2022/01/15 02:29:36;;;;;;;30.63;16.87;;;;;;;;;;770866;182;919089;-66
2022/01/15 02:32:02;;;;;;;35.03;20.37;;;;;;;;;;781805;177;918893;-66
2022/01/15 02:34:28;;;;;;;35.90;18.27;;;;;;;;;;782445;177;919041;-67
2022/01/15 02:36:54;;;;;;;34.80;19.60;;;;;;;;;;783280;177;919204;-67
2022/01/15 02:39:20;;;;;;;29.43;17.07;;;;;;;;;;782867;176;919552;-68
2022/01/15 02:41:46;;;;;;;31.30;17.27;;;;;;;;;;780732;177;1020053;-68
2022/01/15 02:44:17;;;;;;;34.65;19.20;;;;;;;;;;786469;177;918489;-67
2022/01/15 02:49:12;;;;;;;40.33;18.53;;;;;;;;;;775564;177;919030;-68
2022/01/15 02:51:38;;;;;;;34.07;17.63;;;;;;;;;;780292;177;918856;-68
2022/01/15 02:54:04;;;;;;;32.50;16.63;;;;;;;;;;784667;178;919036;-68
2022/01/15 02:56:30;;;;;;;32.93;18.40;;;;;;;;;;782462;178;1020439;-67
2022/01/15 02:58:55;;;;;;;32.63;18.23;;;;;;;;;;779177;177;1021671;-69
2022/01/15 03:01:21;;;;;;;40.00;17.53;;;;;;;;;;780404;177;918955;-68
2022/01/15 03:03:47;;;;;;;29.13;15.37;;;;;;;;;;774685;179;918551;-69
2022/01/15 03:06:13;;;;;;;28.13;15.37;;;;;;;;;;773065;178;918922;-69
2022/01/15 03:08:39;;;;;;;28.97;17.37;;;;;;;;;;783661;177;924549;-69
2022/01/15 03:11:06;;;;;;;33.78;18.50;;;;;;;;;;778592;176;920289;-69
2022/01/15 03:13:30;;;;;;;35.83;16.33;;;;;;;;;;766991;181;918428;-69
2022/01/15 03:15:56;;;;;;;35.50;18.63;;;;;;;;;;785754;177;918494;-69
2022/01/15 03:18:22;;;;;;;26.97;16.27;;;;;;;;;;785244;177;872140;-70
2022/01/15 03:20:48;;;;;;;30.60;15.67;;;;;;;;;;778722;176;918680;-69
2022/01/15 03:23:14;;;;;;;27.10;14.90;;;;;;;;;;781179;176;919125;-69
2022/01/15 03:25:40;;;;;;;28.10;14.50;;;;;;;;;;777616;176;919522;-68
2022/01/15 03:28:06;;;;;;;32.43;17.73;;;;;;;;;;778846;178;919365;-69
2022/01/15 03:30:32;;;;;;;25.17;13.73;;;;;;;;;;784276;177;921123;-69
2022/01/15 03:32:57;;;;;;;23.66;14.76;;;;;;;;;;780970;177;918886;-69
2022/01/15 03:35:23;;;;;;;30.87;14.77;;;;;;;;;;779694;180;915580;-69
2022/01/15 03:37:49;;;;;;;26.70;15.50;;;;;;;;;;783001;177;917171;-69
2022/01/15 03:40:15;;;;;;;30.03;16.20;;;;;;;;;;782336;177;919294;-69
2022/01/15 03:42:41;;;;;;;24.03;13.20;;;;;;;;;;784358;177;920660;-69
2022/01/15 03:45:07;;;;;;;27.77;14.15;;;;;;;;;;779587;177;919908;-69
2022/01/15 03:47:33;;;;;;;23.60;12.73;;;;;;;;;;780923;177;919541;-69
2022/01/15 03:49:59;;;;;;;26.10;13.90;;;;;;;;;;785661;177;919339;-69
2022/01/15 03:52:25;;;;;;;27.53;14.80;;;;;;;;;;778169;176;919264;-69
2022/01/15 03:54:50;;;;;;;24.90;13.00;;;;;;;;;;780913;177;918726;-69
2022/01/15 03:57:16;;;;;;;24.83;12.70;;;;;;;;;;786300;176;921308;-71
2022/01/15 03:59:42;;;;;;;23.93;12.47;;;;;;;;;;776476;181;917764;-69
2022/01/15 04:02:08;;;;;;;24.00;12.00;;;;;;;;;;779983;177;918177;-70
2022/01/15 04:04:34;;;;;;;26.47;14.17;;;;;;;;;;779534;177;916006;-69
2022/01/15 04:07:00;;;;;;;20.33;12.85;;;;;;;;;;786768;177;915831;-69
2022/01/15 04:09:25;;;;;;;33.17;14.43;;;;;;;;;;783416;177;914834;-70
2022/01/15 04:11:51;;;;;;;26.80;15.37;;;;;;;;;;782984;177;922866;-69
2022/01/15 04:14:17;;;;;;;25.27;13.17;;;;;;;;;;782939;177;920813;-69
2022/01/15 04:16:43;;;;;;;28.20;13.80;;;;;;;;;;781288;176;919186;-69
2022/01/15 04:19:09;;;;;;;24.55;12.60;;;;;;;;;;778703;177;919044;-70
2022/01/15 04:21:35;;;;;;;19.73;12.43;;;;;;;;;;779706;177;918947;-69
2022/01/15 04:24:01;;;;;;;19.63;11.87;;;;;;;;;;782977;177;919366;-70
2022/01/15 04:26:27;;;;;;;21.70;11.70;;;;;;;;;;783227;176;919888;-73
2022/01/15 04:28:52;;;;;;;25.83;11.97;;;;;;;;;;781611;176;919087;-70
2022/01/15 04:31:18;;;;;;;32.43;13.20;;;;;;;;;;787752;179;917891;-69
2022/01/15 04:33:44;;;;;;;20.05;11.63;;;;;;;;;;773151;179;920235;-69
2022/01/15 04:36:10;;;;;;;23.03;11.97;;;;;;;;;;790179;175;916336;-69
2022/01/15 04:38:37;;;;;;;17.20;10.10;;;;;;;;;;768512;180;914343;-69
2022/01/15 04:41:01;;;;;;;24.60;10.57;;;;;;;;;;765713;180;915696;-69
2022/01/15 04:43:27;;;;;;;18.93;11.40;;;;;;;;;;767419;180;916286;-69
2022/01/15 04:45:53;;;;;;;24.92;12.05;;;;;;;;;;779241;175;916704;-69
2022/01/15 04:48:19;;;;;;;25.50;11.47;;;;;;;;;;785834;176;918751;-69
2022/01/15 04:50:45;;;;;;;24.57;12.00;;;;;;;;;;778565;176;915120;-69
2022/01/15 04:53:11;;;;;;;23.93;12.07;;;;;;;;;;778736;176;919880;-69
2022/01/15 04:55:37;;;;;;;23.57;12.77;;;;;;;;;;783712;177;915194;-69
2022/01/15 04:58:03;;;;;;;20.70;9.87;;;;;;;;;;776014;177;1021708;-69
2022/01/15 05:00:28;;;;;;;28.13;11.47;;;;;;;;;;784879;176;915358;-69
2022/01/15 05:02:54;;;;;;;31.43;14.33;;;;;;;;;;770946;181;916298;-69
2022/01/15 05:05:20;;;;;;;29.52;14.07;;;;;;;;;;762495;181;914416;-69
2022/01/15 05:07:46;;;;;;;27.27;13.00;;;;;;;;;;781569;177;926274;-69
2022/01/15 05:10:13;;;;;;;35.63;14.00;;;;;;;;;;786287;177;941338;-69
2022/01/15 05:12:43;;;;;;;46.37;15.30;;;;;;;;;;779019;177;918087;-68
2022/01/15 05:15:06;;;;;;;29.53;13.63;;;;;;;;;;780329;177;918051;-69
2022/01/15 05:17:32;;;;;;;28.10;14.33;;;;;;;;;;780070;177;919269;-69
2022/01/15 05:19:58;;;;;;;29.37;15.27;;;;;;;;;;784888;176;916902;-70
2022/01/15 05:22:24;;;;;;;30.33;14.47;;;;;;;;;;775572;179;918867;-69
2022/01/15 05:24:50;;;;;;;29.00;15.40;;;;;;;;;;784933;176;1022285;-68
2022/01/15 05:27:16;;;;;;;27.53;13.90;;;;;;;;;;790329;176;918773;-69
2022/01/15 05:29:42;;;;;;;29.65;15.30;;;;;;;;;;780189;177;919248;-69
2022/01/15 05:32:08;;;;;;;33.20;16.67;;;;;;;;;;780707;177;919613;-69
2022/01/15 05:34:34;;;;;;;31.50;15.13;;;;;;;;;;787128;177;940697;-71
2022/01/15 05:37:01;;;;;;;27.73;13.20;;;;;;;;;;776652;180;919442;-70
2022/01/15 05:39:26;;;;;;;29.93;15.67;;;;;;;;;;772354;176;917736;-70
2022/01/15 05:41:52;;;;;;;28.50;15.40;;;;;;;;;;785125;177;919031;-69
2022/01/15 05:44:18;;;;;;;28.70;16.07;;;;;;;;;;786661;176;919451;-68
2022/01/15 05:46:45;;;;;;;32.30;15.40;;;;;;;;;;781063;176;919023;-69
2022/01/15 05:49:10;;;;;;;28.47;13.20;;;;;;;;;;781973;176;919367;-69
2022/01/15 05:51:35;;;;;;;33.13;16.15;;;;;;;;;;784786;178;918683;-69
2022/01/15 05:54:01;;;;;;;21.30;13.57;;;;;;;;;;782097;176;919344;-69
2022/01/15 05:56:27;;;;;;;29.00;15.77;;;;;;;;;;779762;176;918655;-69
2022/01/15 05:58:53;;;;;;;26.17;13.57;;;;;;;;;;786009;177;918927;-69
2022/01/15 06:01:19;;;;;;;37.93;15.77;;;;;;;;;;783149;177;928738;-69
2022/01/15 06:03:45;;;;;;;37.80;16.37;;;;;;;;;;778915;176;918556;-69
2022/01/15 06:06:11;;;;;;;29.87;15.43;;;;;;;;;;780054;177;918957;-69
2022/01/15 06:08:36;;;;;;;27.20;14.13;;;;;;;;;;783125;177;918541;-70
2022/01/15 06:11:02;;;;;;;32.87;14.20;;;;;;;;;;779196;177;939006;-69
2022/01/15 06:13:28;;;;;;;39.20;16.40;;;;;;;;;;778359;176;975716;-69
2022/01/15 06:15:54;;;;;;;30.77;17.40;;;;;;;;;;797795;176;918475;-69
2022/01/15 06:18:20;;;;;;;35.00;16.90;;;;;;;;;;783089;176;918612;-70
2022/01/15 06:20:46;;;;;;;35.13;19.07;;;;;;;;;;781725;177;920280;-70
2022/01/15 06:23:11;;;;;;;44.10;26.90;;;;;;;;;;788286;177;919795;-69
2022/01/15 06:25:37;;;;;;;42.55;21.65;;;;;;;;;;777190;176;918893;-69
2022/01/15 06:28:03;;;;;;;45.70;26.60;;;;;;;;;;777658;177;919243;-69
2022/01/15 06:30:29;;;;;;;42.63;21.17;;;;;;;;;;785018;176;919148;-69
2022/01/15 06:32:55;;;;;;;54.93;26.50;;;;;;;;;;792394;176;918663;-69
2022/01/15 06:35:21;;;;;;;49.90;24.70;;;;;;;;;;787595;175;918990;-69
2022/01/15 06:37:47;;;;;;;41.13;21.07;;;;;;;;;;781368;176;919890;-69
2022/01/15 06:40:13;;;;;;;33.53;19.67;;;;;;;;;;785094;176;918916;-68
2022/01/15 06:42:39;;;;;;;39.40;20.30;;;;;;;;;;777843;178;919886;-70
2022/01/15 06:45:06;;;;;;;33.65;18.98;;;;;;;;;;784917;177;919211;-69
2022/01/15 06:47:31;;;;;;;36.57;17.80;;;;;;;;;;785402;176;919820;-70
2022/01/15 06:49:58;;;;;;;42.03;21.07;;;;;;;;;;779340;177;941224;-70
2022/01/15 06:52:24;;;;;;;34.60;20.30;;;;;;;;;;778045;177;919380;-69
2022/01/15 06:54:49;;;;;;;37.23;18.60;;;;;;;;;;775104;178;918555;-69
2022/01/15 06:57:16;;;;;;;44.80;20.13;;;;;;;;;;789319;176;918524;-69
2022/01/15 06:59:44;;;;;;;34.53;19.90;;;;;;;;;;782062;176;918869;-69
2022/01/15 07:02:10;;;;;;;26.87;15.43;;;;;;;;;;781128;176;919019;-69
2022/01/15 07:04:33;;;;;;;32.43;16.20;;;;;;;;;;774335;180;919515;-69
2022/01/15 07:06:59;;;;;;;32.50;18.40;;;;;;;;;;779847;177;918826;-69
2022/01/15 07:09:25;;;;;;;32.87;18.90;;;;;;;;;;779520;177;918314;-69
2022/01/15 07:11:51;;;;;;;36.20;21.57;;;;;;;;;;788023;176;919059;-69
2022/01/15 07:14:17;;;;;;;42.53;20.27;;;;;;;;;;784162;176;913333;-69
2022/01/15 07:16:42;;;;;;;33.92;16.48;;;;;;;;;;781781;177;918948;-69
2022/01/15 07:19:09;;;;;;;55.45;20.67;;;;;;;;;;783123;176;918958;-68
2022/01/15 07:21:34;;;;;;;54.37;20.17;;;;;;;;;;772666;179;918473;-69
2022/01/15 07:24:00;;;;;;;52.93;21.97;;;;;;;;;;781081;176;920300;-69
2022/01/15 07:26:26;;;;;;;72.05;21.75;;;;;;;;;;779905;176;918926;-69
2022/01/15 07:28:52;;;;;;;74.07;25.33;;;;;;;;;;787238;176;919000;-68
2022/01/15 07:31:18;;;;;;;142.57;28.60;;;;;;;;;;781091;176;915174;-68
2022/01/15 07:33:44;;;;;;;119.47;30.63;;;;;;;;;;775075;176;915426;-69
2022/01/15 07:36:10;;;;;;;155.40;37.43;;;;;;;;;;794280;177;914355;-68
2022/01/15 07:38:35;;;;;;;155.63;44.47;;;;;;;;;;780251;177;919542;-67
2022/01/15 07:41:01;;;;;;;172.07;45.20;;;;;;;;;;780568;177;918846;-68
2022/01/15 07:43:27;;;;;;;155.43;44.03;;;;;;;;;;785772;176;919428;-68
2022/01/15 07:45:53;;;;;;;204.65;41.28;;;;;;;;;;767162;179;919291;-68
2022/01/15 07:48:21;;;;;;;124.90;37.93;;;;;;;;;;768493;179;918394;-68
2022/01/15 07:50:45;;;;;;;94.93;30.33;;;;;;;;;;779752;176;919351;-68
2022/01/15 07:53:11;;;;;;;148.00;41.33;;;;;;;;;;787221;176;817856;-67
2022/01/15 07:55:36;;;;;;;180.10;44.80;;;;;;;;;;788636;175;636231;-67
2022/01/15 07:58:03;;;;;;;122.10;37.70;;;;;;;;;;785688;177;633740;-67
2022/01/15 08:00:29;;;;;;;190.47;37.00;;;;;;;;;;785102;177;639334;-67
2022/01/15 08:02:56;;;;;;;193.50;34.23;;;;;;;;;;782612;176;632585;-68
2022/01/15 08:05:21;;;;;;;131.60;34.80;;;;;;;;;;782310;176;909881;-66
2022/01/15 08:07:47;;;;;;;168.40;37.67;;;;;;;;;;786726;177;918950;-67
2022/01/15 08:10:13;;;;;;;123.63;32.17;;;;;;;;;;783918;176;915958;-67
2022/01/15 08:12:41;;;;;;;120.87;31.23;;;;;;;;;;784870;176;636725;-67
2022/01/15 08:15:08;;;;;;;103.60;28.70;;;;;;;;;;787776;176;629906;-66
2022/01/15 08:17:33;;;;;;;128.80;28.30;;;;;;;;;;778189;177;644868;-67
2022/01/15 08:19:59;;;;;;;189.98;33.05;;;;;;;;;;776617;177;919159;-65
2022/01/15 08:22:25;;;;;;;157.50;31.40;;;;;;;;;;784729;176;917578;-66
2022/01/15 08:24:51;;;;;;;152.83;29.93;;;;;;;;;;770578;180;918850;-64
2022/01/15 08:27:17;;;;;;;192.00;32.10;;;;;;;;;;782635;176;914030;-65
2022/01/15 08:29:43;;;;;;;187.60;34.10;;;;;;;;;;771428;179;918099;-65
2022/01/15 08:32:09;;;;;;;168.20;35.00;;;;;;;;;;766980;181;918835;-65
2022/01/15 08:34:34;;;;;;;185.82;36.10;;;;;;;;;;755531;183;1079517;-65
2022/01/15 08:37:00;;;;;;;196.47;36.50;;;;;;;;;;767717;182;919206;-65
2022/01/15 08:39:26;;;;;;;245.17;36.80;;;;;;;;;;767054;181;919211;-65
2022/01/15 08:41:52;;;;;;;255.10;35.47;;;;;;;;;;789015;176;918468;-64
2022/01/15 08:44:21;;;;;;;163.70;34.40;;;;;;;;;;779165;176;919564;-64
2022/01/15 08:46:44;;;;;;;164.63;38.00;;;;;;;;;;778797;177;919999;-65
2022/01/15 08:49:10;;;;;;;133.97;27.67;;;;;;;;;;797276;175;930576;-64
2022/01/15 08:51:35;;;;;;;192.33;31.70;;;;;;;;;;784561;177;894588;-64
2022/01/15 08:54:01;;;;;;;112.53;30.20;;;;;;;;;;778417;176;920362;-63
2022/01/15 08:56:27;;;;;;;138.50;29.67;;;;;;;;;;782216;180;917987;-63
2022/01/15 08:58:53;;;;;;;118.10;28.70;;;;;;;;;;768162;180;1121755;-63
2022/01/15 09:01:19;;;;;;;260.57;36.53;;;;;;;;;;767717;179;917268;-64
2022/01/15 09:03:45;;;;;;;203.80;33.13;;;;;;;;;;781130;177;918173;-63
2022/01/15 09:06:11;;;;;;;163.07;33.23;;;;;;;;;;790394;176;914257;-64
2022/01/15 09:08:37;;;;;;;130.03;27.97;;;;;;;;;;785893;177;914401;-64
2022/01/15 09:11:02;;;;;;;217.60;31.43;;;;;;;;;;782341;176;916131;-64
2022/01/15 09:13:29;;;;;;;160.43;32.20;;;;;;;;;;767899;180;919268;-64
2022/01/15 09:15:54;;;;;;;121.00;25.63;;;;;;;;;;775631;178;919787;-64
2022/01/15 09:18:20;;;;;;;139.60;28.47;;;;;;;;;;777628;178;919498;-64
2022/01/15 09:20:46;;;;;;;131.90;31.17;;;;;;;;;;778449;180;919089;-64
2022/01/15 09:23:12;;;;;;;199.03;32.93;;;;;;;;;;756850;183;919167;-64
2022/01/15 09:25:37;;;;;;;144.97;29.77;;;;;;;;;;781088;176;918634;-64
2022/01/15 09:30:35;;;;;;;155.87;33.50;;;;;;;;;;780175;176;919513;-65
2022/01/15 09:33:03;;;;;;;152.83;33.90;;;;;;;;;;769163;177;919522;-64
2022/01/15 09:35:27;;;;;;;210.80;42.60;;;;;;;;;;767833;179;917493;-63
2022/01/15 09:37:53;;;;;;;244.97;41.03;;;;;;;;;;768183;180;919217;-64
2022/01/15 09:40:19;;;;;;;152.63;34.57;;;;;;;;;;778842;176;919144;-63
2022/01/15 09:42:44;;;;;;;170.57;33.57;;;;;;;;;;778538;176;919013;-63
2022/01/15 09:45:11;;;;;;;233.77;43.22;;;;;;;;;;784796;176;919552;-62
2022/01/15 09:47:36;;;;;;;130.80;32.07;;;;;;;;;;786006;176;919520;-63
2022/01/15 09:50:04;;;;;;;135.37;36.70;;;;;;;;;;781329;176;919039;-64
2022/01/15 09:52:30;;;;;;;217.57;48.80;;;;;;;;;;781039;177;919090;-63
2022/01/15 09:54:56;;;;;;;107.77;33.77;;;;;;;;;;781690;177;924167;-64
2022/01/15 09:57:22;;;;;;;183.03;38.30;;;;;;;;;;773355;177;919083;-66
2022/01/15 09:59:47;;;;;;;174.03;36.70;;;;;;;;;;778719;176;918794;-64
2022/01/15 10:02:14;;;;;;;123.22;33.30;;;;;;;;;;784984;177;918536;-64
2022/01/15 10:04:39;;;;;;;105.23;32.97;;;;;;;;;;774744;177;919096;-65
2022/01/15 10:07:08;;;;;;;107.10;33.63;;;;;;;;;;780272;177;917774;-65
2022/01/15 10:09:33;;;;;;;102.77;36.43;;;;;;;;;;780836;177;1021184;-65
2022/01/15 10:11:59;;;;;;;102.30;36.67;;;;;;;;;;783416;177;918704;-65
2022/01/15 10:14:27;;;;;;;98.27;34.07;;;;;;;;;;780682;176;919867;-66
2022/01/15 10:16:53;;;;;;;108.17;36.90;;;;;;;;;;777654;177;919350;-66
2022/01/15 10:19:25;;;;;;;94.00;39.70;;;;;;;;;;790427;176;919614;-66
2022/01/15 10:22:06;;;;;;;99.93;38.60;;;;;;;;;;773465;176;918514;-66
2022/01/15 10:24:32;;;;;;;109.57;42.67;;;;;;;;;;776959;176;919777;-67
2022/01/15 10:27:02;;;;;;;124.47;44.23;;;;;;;;;;777837;177;919767;-67
2022/01/15 10:29:28;;;;;;;118.60;46.67;;;;;;;;;;776668;177;1023221;-68
2022/01/15 10:31:53;;;;;;;93.70;40.30;;;;;;;;;;785007;176;919269;-67
2022/01/15 10:34:30;;;;;;;100.70;38.40;;;;;;;;;;781033;176;918922;-68
2022/01/15 10:37:01;;;;;;;128.23;45.30;;;;;;;;;;783105;176;624048;-68
2022/01/15 10:39:27;;;;;;;97.63;39.40;;;;;;;;;;783444;176;624927;-70
2022/01/15 10:41:53;;;;;;;103.70;40.17;;;;;;;;;;795260;176;921697;-67
2022/01/15 10:44:25;;;;;;;115.20;35.33;;;;;;;;;;784641;176;918259;-66
2022/01/15 10:46:50;;;;;;;66.97;29.77;;;;;;;;;;782680;176;918702;-66
2022/01/15 10:49:20;;;;;;;101.13;28.97;;;;;;;;;;779671;176;920678;-67
2022/01/15 10:51:46;;;;;;;89.30;33.20;;;;;;;;;;785417;176;816551;-64
2022/01/15 10:54:13;;;;;;;103.33;32.23;;;;;;;;;;777234;176;918732;-65
2022/01/15 10:56:38;;;;;;;67.47;27.57;;;;;;;;;;784188;176;919277;-63
2022/01/15 10:59:06;;;;;;;53.87;25.43;;;;;;;;;;788861;174;940525;-63
2022/01/15 11:01:32;;;;;;;92.62;33.45;;;;;;;;;;783383;176;920922;-63
2022/01/15 11:03:58;;;;;;;55.27;22.07;;;;;;;;;;781488;176;916074;-63
2022/01/15 11:06:29;;;;;;;55.47;22.87;;;;;;;;;;780760;177;919401;-62
2022/01/15 11:08:55;;;;;;;45.77;18.47;;;;;;;;;;785166;176;918580;-62
2022/01/15 11:11:23;;;;;;;61.00;20.20;;;;;;;;;;777815;177;919371;-62
2022/01/15 11:13:47;;;;;;;57.28;21.58;;;;;;;;;;776991;177;919759;-62
2022/01/15 11:16:14;;;;;;;49.60;22.60;;;;;;;;;;784393;176;919078;-62
2022/01/15 11:18:39;;;;;;;43.70;20.17;;;;;;;;;;779502;176;919771;-63
2022/01/15 11:21:04;;;;;;;43.30;21.20;;;;;;;;;;779474;177;1007660;-62
2022/01/15 11:23:30;;;;;;;47.03;24.10;;;;;;;;;;781202;177;917523;-63
2022/01/15 11:25:56;;;;;;;49.67;23.67;;;;;;;;;;783715;177;919452;-62
2022/01/15 11:28:22;;;;;;;47.63;22.97;;;;;;;;;;778315;176;919508;-62
2022/01/15 11:30:48;;;;;;;44.23;19.63;;;;;;;;;;777459;177;998868;-62
2022/01/15 11:33:14;;;;;;;54.70;24.30;;;;;;;;;;784245;177;919865;-62
2022/01/15 11:35:40;;;;;;;60.97;26.30;;;;;;;;;;780330;176;918822;-62
2022/01/15 11:38:06;;;;;;;57.77;23.90;;;;;;;;;;779418;177;919003;-64
2022/01/15 11:40:32;;;;;;;43.10;21.10;;;;;;;;;;785315;177;914782;-62
2022/01/15 11:42:58;;;;;;;45.80;21.93;;;;;;;;;;786280;176;692908;-63
2022/01/15 11:45:29;;;;;;;54.60;22.50;;;;;;;;;;777484;179;615701;-62
2022/01/15 11:48:10;;;;;;;43.60;18.50;;;;;;;;;;780944;176;919365;-62
2022/01/15 11:50:37;;;;;;;40.15;20.95;;;;;;;;;;781551;176;815159;-62
2022/01/15 11:53:05;;;;;;;46.30;24.17;;;;;;;;;;788564;176;918488;-62
2022/01/15 11:55:29;;;;;;;43.90;18.57;;;;;;;;;;766710;179;920982;-62
2022/01/15 11:57:54;;;;;;;42.97;19.37;;;;;;;;;;783009;176;918228;-62
2022/01/15 12:00:21;;;;;;;39.90;19.43;;;;;;;;;;786809;177;916842;-62
2022/01/15 12:02:53;;;;;;;40.33;20.07;;;;;;;;;;781237;177;914923;-63
2022/01/15 12:05:29;;;;;;;42.53;19.47;;;;;;;;;;783335;177;621747;-62
2022/01/15 12:08:14;;;;;;;41.77;19.93;;;;;;;;;;782329;177;643194;-63
2022/01/15 12:10:40;;;;;;;30.50;16.77;;;;;;;;;;788606;177;635331;-62
2022/01/15 12:13:11;;;;;;;33.30;15.73;;;;;;;;;;783397;176;643196;-62
2022/01/15 12:15:36;;;;;;;29.73;15.00;;;;;;;;;;786640;176;919271;-62
2022/01/15 12:18:02;;;;;;;22.83;14.33;;;;;;;;;;777246;180;919042;-63
2022/01/15 12:20:30;;;;;;;32.58;14.93;;;;;;;;;;781973;176;921743;-62
2022/01/15 12:22:55;;;;;;;25.87;12.90;;;;;;;;;;785536;176;917731;-62
2022/01/15 12:25:30;;;;;;;29.83;13.30;;;;;;;;;;765444;178;966325;-62
2022/01/15 12:27:59;;;;;;;30.80;14.90;;;;;;;;;;778112;177;919631;-62
2022/01/15 12:30:27;;;;;;;24.00;12.90;;;;;;;;;;771663;177;919385;-62
2022/01/15 12:32:51;;;;;;;21.10;12.20;;;;;;;;;;770318;180;918103;-62
2022/01/15 12:35:18;;;;;;;24.23;12.97;;;;;;;;;;782408;177;919497;-62
2022/01/15 12:37:49;;;;;;;20.97;11.77;;;;;;;;;;779672;176;919280;-61
2022/01/15 12:40:15;;;;;;;20.67;12.00;;;;;;;;;;780155;177;916350;-62
2022/01/15 12:42:41;;;;;;;20.87;12.70;;;;;;;;;;768932;181;940662;-62
2022/01/15 12:45:07;;;;;;;26.10;12.83;;;;;;;;;;777428;177;920159;-63
2022/01/15 12:47:38;;;;;;;21.13;10.47;;;;;;;;;;778227;177;919299;-62
2022/01/15 12:50:06;;;;;;;19.20;9.30;;;;;;;;;;778762;177;920895;-62
2022/01/15 12:52:31;;;;;;;20.20;10.33;;;;;;;;;;785845;176;919413;-62
2022/01/15 12:54:57;;;;;;;32.80;10.97;;;;;;;;;;783295;176;919528;-62
2022/01/15 12:57:29;;;;;;;20.43;10.53;;;;;;;;;;781474;176;919362;-62
2022/01/15 13:00:00;;;;;;;19.95;9.85;;;;;;;;;;784476;176;919345;-61
2022/01/15 13:02:26;;;;;;;22.73;10.20;;;;;;;;;;787894;176;917513;-62
2022/01/15 13:04:52;;;;;;;25.80;10.33;;;;;;;;;;778414;176;919790;-63
2022/01/15 13:07:19;;;;;;;16.27;10.87;;;;;;;;;;789672;176;918747;-63
2022/01/15 13:09:46;;;;;;;18.37;8.50;;;;;;;;;;771646;180;916208;-63
2022/01/15 13:12:12;;;;;;;19.80;10.13;;;;;;;;;;780174;178;916047;-63
2022/01/15 13:14:38;;;;;;;20.10;9.37;;;;;;;;;;778478;177;921154;-62
2022/01/15 13:17:04;;;;;;;21.30;9.57;;;;;;;;;;778270;180;918661;-63
2022/01/15 13:19:35;;;;;;;19.47;8.23;;;;;;;;;;789802;177;891866;-63
2022/01/15 13:22:03;;;;;;;21.90;8.37;;;;;;;;;;776772;176;1702745;-63
2022/01/15 13:24:29;;;;;;;20.53;8.03;;;;;;;;;;777888;179;914717;-62
2022/01/15 13:26:57;;;;;;;16.73;7.90;;;;;;;;;;783580;176;915498;-63
2022/01/15 13:29:22;;;;;;;18.00;9.33;;;;;;;;;;783953;177;919800;-63
2022/01/15 13:31:46;;;;;;;12.73;7.33;;;;;;;;;;784522;176;919852;-63
2022/01/15 13:34:12;;;;;;;15.90;8.60;;;;;;;;;;785479;176;920618;-62
2022/01/15 13:36:40;;;;;;;18.90;9.20;;;;;;;;;;782684;177;931476;-63
2022/01/15 13:39:04;;;;;;;21.57;8.40;;;;;;;;;;778974;177;919821;-62
2022/01/15 13:41:30;;;;;;;23.03;8.93;;;;;;;;;;778721;177;919727;-62
2022/01/15 13:43:57;;;;;;;16.03;9.93;;;;;;;;;;783522;176;944508;-63
2022/01/15 13:46:22;;;;;;;18.53;8.90;;;;;;;;;;786318;176;625338;-63
2022/01/15 13:48:53;;;;;;;19.50;9.43;;;;;;;;;;786172;177;646597;-63
2022/01/15 13:53:45;;;;;;;29.83;16.03;;;;;;;;;;786189;176;653684;-64
2022/01/15 13:56:15;;;;;;;24.30;11.77;;;;;;;;;;783149;176;918155;-65
2022/01/15 13:58:41;;;;;;;15.70;7.77;;;;;;;;;;785166;176;918734;-63
2022/01/15 14:01:12;;;;;;;25.87;10.77;;;;;;;;;;786748;177;919206;-63
2022/01/15 14:03:38;;;;;;;22.93;9.50;;;;;;;;;;784817;177;621951;-62
2022/01/15 14:06:04;;;;;;;25.40;10.83;;;;;;;;;;782836;176;919285;-62
2022/01/15 14:08:30;;;;;;;23.42;7.85;;;;;;;;;;778283;177;917306;-63
2022/01/15 14:10:56;;;;;;;14.73;8.27;;;;;;;;;;789189;176;636343;-62
2022/01/15 14:13:22;;;;;;;19.17;8.13;;;;;;;;;;781359;177;632659;-63
2022/01/15 14:15:48;;;;;;;20.83;9.20;;;;;;;;;;792943;176;644544;-64